»·PEaware :: QXE1180 KSBA-KMRY

QXE1180 :: KSBA-KMRY

FLIGHT INFORMATION

Flight Status: Arrived
Operator:
Horizon Air
More flights by this operator :: More flights under this callsign
Pilot: Anonymous 10181 (10181)
Aircraft: DEHAVILLAND DASH 8 400
(DH8D)
More flights by this aircraft type
Origin: KSBA Santa Barbara Mun
United States
Destination: KMRY Monterey Peninsula
United States
More flights between these airports :: More routes between these airports
Route: GAUCH2 MQO T261 SNS
File this flight plan on PilotEdge
Remarks: Happy Saturday!
Altitude:
(Current/Filed)
24,000ft
Speed:
(Current/Filed)
370kts
Departed: 06-Aug-22 06:32 PM
Arrived: 06-Aug-22 07:21 PM
Distance/Time
Traveled:
162nm/0:48
Distance/Time
To Go:
Arrived

Flight Plot

Page will automatically refresh every two minutes.

Flight plan parsing failed; only flown route is shown


Map Options




Map Legend


Flown Route
Filed Route
Departure Airport
Arrival Airport
Navaid (VOR, NDB)
Fix

Horizontal Profiles

Position Reports

Time Latitude Longitude Heading Altitude Ground
Speed
06-Aug-22 17:56 34.424591 -119.837111 124 23ft 0kts
06-Aug-22 17:57 34.424591 -119.837111 124 23ft 0kts
06-Aug-22 17:58 34.424591 -119.837111 124 23ft 0kts
06-Aug-22 17:59 34.424591 -119.837111 124 23ft 0kts
06-Aug-22 18:00 34.424591 -119.837111 124 23ft 0kts
06-Aug-22 18:01 34.424591 -119.837111 124 23ft 0kts
06-Aug-22 18:02 34.424591 -119.837111 124 23ft 0kts
06-Aug-22 18:03 34.424591 -119.837111 124 23ft 0kts
06-Aug-22 18:04 34.424591 -119.837111 124 23ft 0kts
06-Aug-22 18:05 34.424591 -119.837111 124 23ft 0kts
06-Aug-22 18:06 34.424591 -119.837111 124 23ft 0kts
06-Aug-22 18:07 34.424591 -119.837111 124 23ft 0kts
06-Aug-22 18:08 34.424591 -119.837111 124 23ft 0kts
06-Aug-22 18:09 34.424591 -119.837111 124 23ft 0kts
06-Aug-22 18:10 34.424591 -119.837111 124 23ft 0kts
06-Aug-22 18:11 34.424591 -119.837111 124 23ft 0kts
06-Aug-22 18:12 34.424591 -119.837111 124 23ft 0kts
06-Aug-22 18:13 34.424591 -119.837111 124 23ft 0kts
06-Aug-22 18:14 34.424591 -119.837111 124 23ft 0kts
06-Aug-22 18:15 34.424591 -119.837111 124 23ft 0kts
06-Aug-22 18:16 34.424591 -119.837111 124 23ft 0kts
06-Aug-22 18:17 34.424591 -119.837111 124 23ft 0kts
06-Aug-22 18:18 34.424591 -119.837111 124 23ft 0kts
06-Aug-22 18:19 34.424591 -119.837111 124 23ft 0kts
06-Aug-22 18:20 34.424591 -119.837111 124 23ft 0kts
06-Aug-22 18:21 34.424591 -119.837111 124 23ft 0kts
06-Aug-22 18:22 34.424591 -119.837111 124 23ft 0kts
06-Aug-22 18:23 34.424591 -119.837111 124 23ft 0kts
06-Aug-22 18:24 34.424507 -119.837156 284 23ft 0kts
06-Aug-22 18:25 34.424508 -119.837156 285 23ft 0kts
06-Aug-22 18:26 34.424788 -119.837756 336 23ft 4kts
06-Aug-22 18:27 34.426748 -119.836988 87 23ft 5kts
06-Aug-22 18:28 34.426976 -119.834680 21 23ft 0kts
06-Aug-22 18:29 34.427060 -119.834657 5 23ft 0kts
06-Aug-22 18:30 34.427441 -119.834647 356 23ft 3kts
06-Aug-22 18:31 34.427851 -119.837866 268 23ft 79kts
06-Aug-22 18:32 34.415066 -119.884018 271 1411ft 180kts
06-Aug-22 18:33 34.432671 -119.952385 288 3082ft 235kts
06-Aug-22 18:34 34.433473 -120.017532 263 3056ft 179kts
06-Aug-22 18:35 34.423112 -120.086745 263 4168ft 215kts
06-Aug-22 18:36 34.420988 -120.158808 289 5661ft 219kts
06-Aug-22 18:37 34.471550 -120.200635 332 7027ft 229kts
06-Aug-22 18:38 34.529727 -120.235645 331 8124ft 243kts
06-Aug-22 18:39 34.588360 -120.272088 321 9536ft 239kts
06-Aug-22 18:40 34.641301 -120.322526 320 10642ft 246kts
06-Aug-22 18:41 34.696301 -120.374434 320 11676ft 254kts
06-Aug-22 18:42 34.754555 -120.424453 330 12677ft 261kts
06-Aug-22 18:43 34.818800 -120.466917 329 13623ft 265kts
06-Aug-22 18:44 34.883556 -120.510346 329 14487ft 269kts
06-Aug-22 18:45 34.949488 -120.554717 329 15295ft 272kts
06-Aug-22 18:46 35.016323 -120.599778 329 16549ft 278kts
06-Aug-22 18:47 35.084893 -120.646090 329 17832ft 285kts
06-Aug-22 18:48 35.154536 -120.693241 328 18965ft 290kts
06-Aug-22 18:49 35.225469 -120.741367 328 20008ft 294kts
06-Aug-22 18:50 35.274896 -120.816273 293 20813ft 290kts
06-Aug-22 18:51 35.310465 -120.905390 292 21588ft 294kts
06-Aug-22 18:52 35.346391 -120.995720 292 22281ft 296kts
06-Aug-22 18:53 35.382597 -121.086996 292 22935ft 299kts
06-Aug-22 18:54 35.445741 -121.144334 353 23339ft 317kts
06-Aug-22 18:55 35.531978 -121.166288 341 23824ft 319kts
06-Aug-22 18:56 35.617151 -121.197559 340 24187ft 326kts
06-Aug-22 18:57 35.708306 -121.232343 340 23246ft 355kts
06-Aug-22 18:58 35.804343 -121.269173 340 22267ft 368kts
06-Aug-22 18:59 35.902559 -121.306939 340 21276ft 370kts
06-Aug-22 19:00 35.999848 -121.344477 341 20276ft 365kts
06-Aug-22 19:01 36.096340 -121.381793 341 19279ft 364kts
06-Aug-22 19:02 36.192985 -121.419232 341 18282ft 364kts
06-Aug-22 19:03 36.289002 -121.456540 341 17285ft 361kts
06-Aug-22 19:04 36.382982 -121.493203 341 15969ft 345kts
06-Aug-22 19:05 36.471781 -121.527868 341 14539ft 312kts
06-Aug-22 19:06 36.549482 -121.558387 341 13111ft 286kts
06-Aug-22 19:07 36.620740 -121.578461 11 11615ft 248kts
06-Aug-22 19:08 36.683364 -121.556466 16 10074ft 221kts
06-Aug-22 19:09 36.738908 -121.535764 16 8525ft 197kts
06-Aug-22 19:10 36.788586 -121.523303 332 6975ft 185kts
06-Aug-22 19:11 36.782588 -121.577951 197 5584ft 206kts
06-Aug-22 19:12 36.732936 -121.585701 187 4954ft 164kts
06-Aug-22 19:13 36.686084 -121.596774 195 4819ft 181kts
06-Aug-22 19:14 36.643828 -121.631100 231 4647ft 198kts
06-Aug-22 19:15 36.610397 -121.679527 232 3633ft 182kts
06-Aug-22 19:16 36.580837 -121.721907 233 2619ft 159kts
06-Aug-22 19:17 36.561270 -121.765533 278 1640ft 138kts
06-Aug-22 19:18 36.573563 -121.806692 294 851ft 128kts
06-Aug-22 19:19 36.587093 -121.844773 293 207ft 68kts
06-Aug-22 19:20 36.588173 -121.850330 119 201ft 2kts
06-Aug-22 19:21 36.587790 -121.849206 112 202ft 11kts
06-Aug-22 19:22 36.586530 -121.846965 226 205ft 5kts

Navigation Log

Ident Type
Flight plan parsing failed, navigation log unavailable